Time;durP1;ratioP1;P1;durP2;ratioP2;P2;SDS_P1;SDS_P2;PMS_P1;PMS_P2;Temp;Humidity;BMP_temperature;BMP_pressure;BME280_temperature;BME280_humidity;BME280_pressure;Samples;Min_cycle;Max_cycle;Signal;HPM_P1;HPM_P2
2020/12/07 00:01:17;;;;;;;;;;;26.30;31.70;;;;;;4935540;29;19914;-74
2020/12/07 00:03:43;;;;;;;;;;;26.30;32.20;;;;;;4930166;29;19911;-77
2020/12/07 00:06:21;;;;;;;;;;;26.40;31.40;;;;;;4919384;29;19915;-78
2020/12/07 00:08:50;;;;;;;;;;;26.50;31.00;;;;;;4917977;29;19967;-79
2020/12/07 00:11:17;;;;;;;;;;;26.50;31.90;;;;;;4929917;29;20339;-81
2020/12/07 00:13:44;;;;;;;;;;;26.50;31.50;;;;;;4916216;29;19950;-78
2020/12/07 00:16:14;;;;;;;;;;;26.70;30.50;;;;;;4917412;29;20279;-77
2020/12/07 00:18:40;;;;;;;;;;;26.70;31.30;;;;;;4913463;29;19911;-76
2020/12/07 00:21:08;;;;;;;;;;;26.90;30.30;;;;;;4920454;29;19910;-81
2020/12/07 00:23:35;;;;;;;;;;;27.00;30.80;;;;;;4931189;29;20433;-78
2020/12/07 00:26:02;;;;;;;;;;;27.10;30.00;;;;;;4931096;29;20313;-81
2020/12/07 00:28:29;;;;;;;;;;;27.30;30.10;;;;;;4917504;29;19914;-77
2020/12/07 00:30:56;;;;;;;;;;;27.50;30.60;;;;;;4914792;29;20370;-80
2020/12/07 00:33:22;;;;;;;;;;;27.60;30.00;;;;;;4917868;29;19919;-77
2020/12/07 00:35:49;;;;;;;;;;;28.00;29.70;;;;;;4926416;29;19937;-79
2020/12/07 00:38:16;;;;;;;;;;;28.30;29.70;;;;;;4914944;29;19914;-77
2020/12/07 00:40:42;;;;;;;;;;;28.50;29.60;;;;;;4917714;29;20003;-76
2020/12/07 00:43:10;;;;;;;;;;;29.20;28.60;;;;;;4920486;29;19971;-76
2020/12/07 00:45:37;;;;;;;;;;;29.40;28.30;;;;;;4916733;29;20342;-76
2020/12/07 00:48:03;;;;;;;;;;;29.80;28.80;;;;;;4912995;29;19919;-81
2020/12/07 00:50:30;;;;;;;;;;;30.00;28.40;;;;;;4920980;29;20348;-76
2020/12/07 00:52:57;;;;;;;;;;;30.20;27.90;;;;;;4917714;29;19918;-80
2020/12/07 00:55:26;;;;;;;;;;;30.20;28.00;;;;;;4917571;29;19925;-78
2020/12/07 00:57:57;;;;;;;;;;;29.80;28.00;;;;;;4917539;29;19911;-80
2020/12/07 01:00:23;;;;;;;;;;;29.80;28.70;;;;;;4915450;29;19907;-77
2020/12/07 01:02:50;;;;;;;;;;;30.00;29.10;;;;;;4898502;29;19919;-76
2020/12/07 01:05:17;;;;;;;;;;;30.70;28.00;;;;;;4918969;29;20340;-77
2020/12/07 01:07:46;;;;;;;;;;;30.80;28.00;;;;;;4917578;29;19914;-79
2020/12/07 01:10:13;;;;;;;;;;;30.80;27.30;;;;;;4922853;29;20082;-80
2020/12/07 01:12:40;;;;;;;;;;;30.70;27.80;;;;;;4912319;29;20336;-77
2020/12/07 01:15:08;;;;;;;;;;;30.70;27.40;;;;;;4915373;29;19915;-77
2020/12/07 01:17:35;;;;;;;;;;;30.60;27.70;;;;;;4904689;29;19965;-76
2020/12/07 01:20:02;;;;;;;;;;;31.00;27.40;;;;;;4927561;29;20195;-76
2020/12/07 01:22:28;;;;;;;;;;;30.70;27.00;;;;;;4931841;29;19938;-78
2020/12/07 01:24:55;;;;;;;;;;;31.00;27.90;;;;;;4917154;29;19907;-76
2020/12/07 01:27:22;;;;;;;;;;;31.00;28.40;;;;;;4917446;29;19910;-79
2020/12/07 01:29:48;;;;;;;;;;;31.00;26.80;;;;;;4912493;29;19926;-79
2020/12/07 01:32:16;;;;;;;;;;;30.70;26.50;;;;;;4924906;29;19918;-79
2020/12/07 01:34:45;;;;;;;;;;;31.00;27.20;;;;;;4916082;29;20490;-79
2020/12/07 01:37:11;;;;;;;;;;;30.80;26.80;;;;;;4893456;29;20006;-79
2020/12/07 01:39:38;;;;;;;;;;;31.00;27.00;;;;;;4911471;29;20017;-78
2020/12/07 01:42:05;;;;;;;;;;;31.30;26.70;;;;;;4928705;29;19915;-76
2020/12/07 01:44:31;;;;;;;;;;;31.00;26.50;;;;;;4925994;29;19907;-79
2020/12/07 01:46:58;;;;;;;;;;;30.60;27.50;;;;;;4916588;29;20298;-81
2020/12/07 01:49:25;;;;;;;;;;;30.10;27.20;;;;;;4916166;29;19907;-79
2020/12/07 01:51:51;;;;;;;;;;;29.50;27.20;;;;;;4915886;29;19907;-82
2020/12/07 01:54:18;;;;;;;;;;;29.20;28.30;;;;;;4914360;29;20354;-81
2020/12/07 01:56:45;;;;;;;;;;;29.10;28.40;;;;;;4917044;29;20002;-79
2020/12/07 01:59:11;;;;;;;;;;;29.00;26.90;;;;;;4936145;29;19961;-78
2020/12/07 02:01:38;;;;;;;;;;;28.80;27.30;;;;;;4932577;29;19922;-77
2020/12/07 02:04:07;;;;;;;;;;;28.80;28.90;;;;;;4935781;29;19938;-77
2020/12/07 02:06:34;;;;;;;;;;;28.80;27.60;;;;;;4934792;29;19910;-76
2020/12/07 02:09:01;;;;;;;;;;;28.70;27.60;;;;;;4922728;29;19918;-80
2020/12/07 02:11:28;;;;;;;;;;;28.50;27.40;;;;;;4905439;29;20062;-79
2020/12/07 02:13:54;;;;;;;;;;;28.60;27.50;;;;;;4916408;29;19911;-79
2020/12/07 02:16:21;;;;;;;;;;;28.70;27.80;;;;;;4915777;29;19915;-78
2020/12/07 02:18:48;;;;;;;;;;;28.70;27.60;;;;;;4925420;29;20300;-80
2020/12/07 02:21:17;;;;;;;;;;;28.70;27.70;;;;;;4935943;29;19958;-77
2020/12/07 02:23:44;;;;;;;;;;;28.70;26.80;;;;;;4923452;29;20378;-76
2020/12/07 02:26:10;;;;;;;;;;;28.60;28.00;;;;;;4920927;29;19918;-76
2020/12/07 02:28:37;;;;;;;;;;;28.60;26.90;;;;;;4881117;29;19918;-76
2020/12/07 02:31:04;;;;;;;;;;;28.70;27.40;;;;;;4914256;29;20258;-80
2020/12/07 02:33:32;;;;;;;;;;;28.60;27.10;;;;;;4917412;29;20321;-75
2020/12/07 02:36:00;;;;;;;;;;;28.50;27.60;;;;;;4918876;29;19927;-75
2020/12/07 02:38:26;;;;;;;;;;;28.50;27.50;;;;;;4929209;29;20212;-77
2020/12/07 02:40:53;;;;;;;;;;;28.50;27.30;;;;;;4926157;29;19997;-75
2020/12/07 02:43:23;;;;;;;;;;;28.50;26.30;;;;;;4930576;29;19911;-82
2020/12/07 02:45:54;;;;;;;;;;;28.40;26.80;;;;;;4934462;29;19907;-78
2020/12/07 02:48:21;;;;;;;;;;;28.40;27.00;;;;;;4929820;29;20001;-79
2020/12/07 02:50:47;;;;;;;;;;;28.30;27.80;;;;;;4927299;29;19907;-77
2020/12/07 02:53:14;;;;;;;;;;;28.50;28.90;;;;;;4918019;29;19930;-80
2020/12/07 02:55:41;;;;;;;;;;;28.60;29.00;;;;;;4916371;29;20397;-83
2020/12/07 02:58:08;;;;;;;;;;;28.70;27.70;;;;;;4917076;29;20054;-79
2020/12/07 03:00:36;;;;;;;;;;;28.70;26.70;;;;;;4898977;29;19915;-80
2020/12/07 03:03:03;;;;;;;;;;;28.70;27.20;;;;;;4899409;29;19907;-80
2020/12/07 03:05:31;;;;;;;;;;;28.70;27.30;;;;;;4916143;29;20258;-79
2020/12/07 03:07:58;;;;;;;;;;;28.70;27.60;;;;;;4899087;29;20010;-82
2020/12/07 03:10:25;;;;;;;;;;;28.60;28.10;;;;;;4915771;29;19914;-76
2020/12/07 03:12:52;;;;;;;;;;;28.70;27.70;;;;;;4899194;29;19935;-78
2020/12/07 03:15:19;;;;;;;;;;;28.70;27.50;;;;;;4901631;29;19919;-75
2020/12/07 03:17:46;;;;;;;;;;;28.80;28.40;;;;;;4914359;29;19954;-78
2020/12/07 03:20:12;;;;;;;;;;;28.90;26.70;;;;;;4918631;29;20365;-79
2020/12/07 03:22:40;;;;;;;;;;;28.90;27.50;;;;;;4916895;29;20319;-76
2020/12/07 03:25:07;;;;;;;;;;;28.90;26.90;;;;;;4900855;29;19908;-77
2020/12/07 03:27:33;;;;;;;;;;;28.70;26.50;;;;;;4910656;29;19907;-77
2020/12/07 03:30:01;;;;;;;;;;;28.60;28.20;;;;;;4919092;29;19911;-79
2020/12/07 03:32:28;;;;;;;;;;;28.60;27.50;;;;;;4918706;29;19918;-78
2020/12/07 03:34:56;;;;;;;;;;;28.60;27.50;;;;;;4918280;29;19922;-80
2020/12/07 03:37:24;;;;;;;;;;;28.70;28.10;;;;;;4917890;29;19937;-80
2020/12/07 03:39:52;;;;;;;;;;;28.70;28.00;;;;;;4918986;29;19957;-80
2020/12/07 03:42:19;;;;;;;;;;;28.90;28.60;;;;;;4919036;29;19963;-76
2020/12/07 03:44:45;;;;;;;;;;;28.90;27.80;;;;;;4901878;29;20389;-80
2020/12/07 03:47:15;;;;;;;;;;;28.90;27.60;;;;;;4918833;29;20430;-76
2020/12/07 03:49:42;;;;;;;;;;;28.90;28.80;;;;;;4919056;29;19917;-78
2020/12/07 03:52:08;;;;;;;;;;;28.90;27.60;;;;;;4893108;29;20027;-75
2020/12/07 03:54:35;;;;;;;;;;;28.90;28.20;;;;;;4917171;29;19930;-80
2020/12/07 03:57:03;;;;;;;;;;;28.90;27.70;;;;;;4901934;29;19907;-82
2020/12/07 03:59:30;;;;;;;;;;;28.90;28.00;;;;;;4917978;29;19907;-79
2020/12/07 04:01:56;;;;;;;;;;;28.90;27.40;;;;;;4917431;29;20393;-78
2020/12/07 04:04:29;;;;;;;;;;;28.90;27.50;;;;;;4918542;29;19907;-79
2020/12/07 04:06:56;;;;;;;;;;;28.90;28.10;;;;;;4918187;29;19962;-77
2020/12/07 04:09:23;;;;;;;;;;;28.90;27.50;;;;;;4913188;29;19993;-77
2020/12/07 04:11:49;;;;;;;;;;;29.00;28.90;;;;;;4918040;29;20342;-76
2020/12/07 04:14:16;;;;;;;;;;;29.00;27.80;;;;;;4917779;29;19998;-77
2020/12/07 04:16:46;;;;;;;;;;;29.10;28.20;;;;;;4916166;29;20010;-78
2020/12/07 04:19:12;;;;;;;;;;;29.00;27.80;;;;;;4917864;29;19919;-77
2020/12/07 04:21:40;;;;;;;;;;;29.00;27.70;;;;;;4917500;29;19942;-79
2020/12/07 04:24:07;;;;;;;;;;;29.00;28.10;;;;;;4902525;29;20344;-76
2020/12/07 04:26:33;;;;;;;;;;;29.00;27.80;;;;;;4919404;29;19907;-76
2020/12/07 04:29:01;;;;;;;;;;;28.90;27.50;;;;;;4927016;29;20328;-76
2020/12/07 04:31:29;;;;;;;;;;;29.00;27.70;;;;;;4926035;29;19915;-77
2020/12/07 04:33:56;;;;;;;;;;;29.00;28.20;;;;;;4930322;29;20303;-75
2020/12/07 04:36:23;;;;;;;;;;;29.00;29.40;;;;;;4932332;29;19925;-76
2020/12/07 04:38:49;;;;;;;;;;;29.10;28.30;;;;;;4932910;29;19907;-75
2020/12/07 04:41:16;;;;;;;;;;;29.20;28.30;;;;;;4913358;29;19918;-79
2020/12/07 04:43:44;;;;;;;;;;;29.10;28.20;;;;;;4923949;29;20319;-76
2020/12/07 04:46:10;;;;;;;;;;;28.90;28.20;;;;;;4924488;29;19962;-77
2020/12/07 04:48:39;;;;;;;;;;;28.90;28.70;;;;;;4926531;29;19911;-79
2020/12/07 04:51:06;;;;;;;;;;;28.90;29.50;;;;;;4926284;29;19907;-75
2020/12/07 04:53:36;;;;;;;;;;;28.70;28.90;;;;;;4917497;29;19907;-78
2020/12/07 04:56:03;;;;;;;;;;;28.90;28.70;;;;;;4917182;29;19925;-78
2020/12/07 04:58:30;;;;;;;;;;;28.90;28.50;;;;;;4917181;29;20327;-79
2020/12/07 05:00:56;;;;;;;;;;;29.00;28.60;;;;;;4917831;29;20058;-78
2020/12/07 05:03:26;;;;;;;;;;;29.00;29.00;;;;;;4900342;29;19962;-79
2020/12/07 05:05:56;;;;;;;;;;;29.10;28.50;;;;;;4917531;29;20027;-79
2020/12/07 05:08:23;;;;;;;;;;;29.00;27.60;;;;;;4917400;29;19946;-80
2020/12/07 05:10:50;;;;;;;;;;;28.90;28.30;;;;;;4917037;29;20377;-80
2020/12/07 05:15:49;;;;;;;;;;;28.90;27.60;;;;;;4917394;29;19914;-77
2020/12/07 05:18:17;;;;;;;;;;;28.90;27.80;;;;;;4917231;29;20085;-78
2020/12/07 05:20:44;;;;;;;;;;;29.00;28.30;;;;;;4916001;29;20065;-78
2020/12/07 05:23:17;;;;;;;;;;;29.10;27.80;;;;;;4915690;29;19918;-78
2020/12/07 05:25:45;;;;;;;;;;;29.00;28.10;;;;;;4916239;29;19911;-78
2020/12/07 05:28:13;;;;;;;;;;;28.80;28.00;;;;;;4916184;29;20290;-79
2020/12/07 05:30:46;;;;;;;;;;;28.90;28.10;;;;;;4917258;29;19914;-79
2020/12/07 05:33:13;;;;;;;;;;;28.90;29.80;;;;;;4917034;29;20001;-77
2020/12/07 05:35:40;;;;;;;;;;;28.80;28.80;;;;;;4916563;29;20385;-78
2020/12/07 05:38:07;;;;;;;;;;;28.90;28.70;;;;;;4915502;29;19912;-76
2020/12/07 05:40:35;;;;;;;;;;;29.10;28.90;;;;;;4913590;29;19949;-78
2020/12/07 05:43:09;;;;;;;;;;;29.10;28.20;;;;;;4919646;29;20390;-77
2020/12/07 05:45:36;;;;;;;;;;;29.20;27.50;;;;;;4924252;29;19915;-78
2020/12/07 05:48:04;;;;;;;;;;;29.00;27.60;;;;;;4916323;29;20274;-78
2020/12/07 05:50:33;;;;;;;;;;;29.00;27.90;;;;;;4897048;29;19915;-77
2020/12/07 05:53:07;;;;;;;;;;;29.00;27.90;;;;;;4911796;29;19922;-76
2020/12/07 05:55:34;;;;;;;;;;;29.10;27.90;;;;;;4913644;29;19922;-76
2020/12/07 05:58:03;;;;;;;;;;;29.20;27.70;;;;;;4912223;29;20322;-80
2020/12/07 06:00:33;;;;;;;;;;;29.10;27.60;;;;;;4913477;29;19946;-77
2020/12/07 06:03:01;;;;;;;;;;;29.00;27.50;;;;;;4913827;29;20002;-79
2020/12/07 06:05:28;;;;;;;;;;;28.90;27.70;;;;;;4914568;29;19915;-77
2020/12/07 06:08:06;;;;;;;;;;;29.00;28.00;;;;;;4915798;29;19911;-75
2020/12/07 06:10:40;;;;;;;;;;;29.00;27.80;;;;;;4915627;29;19934;-77
2020/12/07 06:13:09;;;;;;;;;;;29.00;27.60;;;;;;4914297;29;19994;-79
2020/12/07 06:15:35;;;;;;;;;;;28.80;28.30;;;;;;4915998;29;19915;-78
2020/12/07 06:18:22;;;;;;;;;;;28.80;28.50;;;;;;4898676;29;20226;-82
2020/12/07 06:20:53;;;;;;;;;;;28.60;29.20;;;;;;4914288;29;19915;-80
2020/12/07 06:23:33;;;;;;;;;;;28.50;29.30;;;;;;4913870;29;19970;-80
2020/12/07 06:26:00;;;;;;;;;;;28.30;29.10;;;;;;4896790;29;19908;-76
2020/12/07 06:28:30;;;;;;;;;;;28.10;30.00;;;;;;4914533;29;20066;-78
2020/12/07 06:31:00;;;;;;;;;;;28.20;30.20;;;;;;4913274;29;19907;-76
2020/12/07 06:33:27;;;;;;;;;;;28.00;30.20;;;;;;4897422;29;20385;-80
2020/12/07 06:36:13;;;;;;;;;;;28.10;29.40;;;;;;4896807;29;20381;-78
2020/12/07 06:38:44;;;;;;;;;;;28.10;30.30;;;;;;4914119;29;20018;-78
2020/12/07 06:41:11;;;;;;;;;;;28.00;28.60;;;;;;4914109;29;19918;-77
2020/12/07 06:43:39;;;;;;;;;;;28.10;30.50;;;;;;4912275;29;19934;-74
2020/12/07 06:46:06;;;;;;;;;;;28.00;30.30;;;;;;4913502;29;19910;-81
2020/12/07 06:48:36;;;;;;;;;;;28.00;29.80;;;;;;4912899;29;19970;-79
2020/12/07 06:51:03;;;;;;;;;;;27.90;29.30;;;;;;4913347;29;20326;-76
2020/12/07 06:56:02;;;;;;;;;;;28.00;28.60;;;;;;4915674;29;20413;-77
2020/12/07 06:58:39;;;;;;;;;;;28.00;30.00;;;;;;4916789;29;19958;-78
2020/12/07 07:01:09;;;;;;;;;;;28.10;28.50;;;;;;4915965;29;19984;-75
2020/12/07 07:03:37;;;;;;;;;;;28.00;28.90;;;;;;4898971;29;19911;-75
2020/12/07 07:06:08;;;;;;;;;;;27.90;28.90;;;;;;4898114;29;19918;-79
2020/12/07 07:08:37;;;;;;;;;;;27.90;27.90;;;;;;4898722;29;19915;-79
2020/12/07 07:11:05;;;;;;;;;;;27.90;29.00;;;;;;4900173;29;19986;-75
2020/12/07 07:13:33;;;;;;;;;;;27.90;28.10;;;;;;4907069;29;19911;-77
2020/12/07 07:16:00;;;;;;;;;;;27.80;28.40;;;;;;4900508;29;19916;-75
2020/12/07 07:18:27;;;;;;;;;;;27.90;29.10;;;;;;4898822;29;19915;-78
2020/12/07 07:21:00;;;;;;;;;;;27.90;28.40;;;;;;4912076;29;19907;-75
2020/12/07 07:23:27;;;;;;;;;;;27.90;28.10;;;;;;4917355;29;19918;-78
2020/12/07 07:26:08;;;;;;;;;;;27.80;28.60;;;;;;4900186;29;19914;-77
2020/12/07 07:28:38;;;;;;;;;;;27.80;28.90;;;;;;4917622;29;19907;-79
2020/12/07 07:31:05;;;;;;;;;;;27.80;29.10;;;;;;4917729;29;20363;-78
2020/12/07 07:33:32;;;;;;;;;;;27.70;28.20;;;;;;4917510;29;20289;-78
2020/12/07 07:35:58;;;;;;;;;;;27.70;29.10;;;;;;4917771;29;19938;-77
2020/12/07 07:38:28;;;;;;;;;;;27.60;28.80;;;;;;4916387;29;20126;-77
2020/12/07 07:40:55;;;;;;;;;;;27.60;28.80;;;;;;4923934;29;19959;-76
2020/12/07 07:43:25;;;;;;;;;;;27.60;28.80;;;;;;4924467;29;19918;-75
2020/12/07 07:45:58;;;;;;;;;;;27.60;28.80;;;;;;4916407;29;19907;-80
2020/12/07 07:48:48;;;;;;;;;;;27.60;28.70;;;;;;4917071;29;19907;-76
2020/12/07 07:54:46;;;;;;;;;;;27.40;28.20;;;;;;4901589;29;19919;-77
2020/12/07 08:16:28;;;;;;;;;;;26.90;30.50;;;;;;4929611;29;19973;-76
2020/12/07 08:18:58;;;;;;;;;;;26.80;29.50;;;;;;4918473;29;20339;-75
2020/12/07 08:21:25;;;;;;;;;;;26.80;31.00;;;;;;4917650;29;19907;-75
2020/12/07 08:23:58;;;;;;;;;;;26.70;29.30;;;;;;4917916;29;19914;-79
2020/12/07 08:26:25;;;;;;;;;;;26.60;29.50;;;;;;4917931;29;19987;-76
2020/12/07 08:28:53;;;;;;;;;;;26.60;29.80;;;;;;4933034;29;19907;-78
2020/12/07 08:31:21;;;;;;;;;;;26.60;29.80;;;;;;4918033;29;19907;-78
2020/12/07 08:33:57;;;;;;;;;;;26.50;29.80;;;;;;4917894;29;19907;-78
2020/12/07 08:36:24;;;;;;;;;;;26.50;29.50;;;;;;4917541;29;19915;-79
2020/12/07 08:38:51;;;;;;;;;;;26.40;29.80;;;;;;4918437;29;20346;-79
2020/12/07 08:41:25;;;;;;;;;;;26.40;30.10;;;;;;4916761;29;19911;-76
2020/12/07 08:44:00;;;;;;;;;;;26.30;29.30;;;;;;4915827;29;20002;-76
2020/12/07 08:46:27;;;;;;;;;;;26.30;30.10;;;;;;4917869;29;20315;-77
2020/12/07 08:48:55;;;;;;;;;;;26.20;30.30;;;;;;4917997;29;20345;-76
2020/12/07 08:51:26;;;;;;;;;;;26.20;31.00;;;;;;4916816;29;19911;-75
2020/12/07 08:53:53;;;;;;;;;;;26.10;30.00;;;;;;4917388;29;19915;-75
2020/12/07 08:56:21;;;;;;;;;;;26.10;30.00;;;;;;4895615;29;20025;-79
2020/12/07 08:58:48;;;;;;;;;;;26.10;31.10;;;;;;4902124;29;20290;-78
2020/12/07 09:01:15;;;;;;;;;;;26.00;30.70;;;;;;4908310;29;20006;-81
2020/12/07 09:03:46;;;;;;;;;;;26.00;31.00;;;;;;4933863;29;19907;-79
2020/12/07 09:06:15;;;;;;;;;;;26.00;30.50;;;;;;4934120;29;19914;-82
2020/12/07 09:08:42;;;;;;;;;;;26.00;30.00;;;;;;4931051;29;20006;-78
2020/12/07 09:11:12;;;;;;;;;;;26.00;30.30;;;;;;4915402;29;20433;-77
2020/12/07 09:13:45;;;;;;;;;;;26.00;30.60;;;;;;4913729;29;19919;-78
2020/12/07 09:16:13;;;;;;;;;;;26.00;30.90;;;;;;4914193;29;19930;-76
2020/12/07 09:18:40;;;;;;;;;;;25.90;31.10;;;;;;4912972;29;19918;-86
2020/12/07 09:21:07;;;;;;;;;;;25.90;31.00;;;;;;4914286;29;19911;-78
2020/12/07 09:23:35;;;;;;;;;;;25.80;30.70;;;;;;4914711;29;20001;-79
2020/12/07 09:26:02;;;;;;;;;;;25.70;32.30;;;;;;4914602;29;20027;-79
2020/12/07 09:28:29;;;;;;;;;;;25.70;32.30;;;;;;4914781;29;19923;-80
2020/12/07 09:30:56;;;;;;;;;;;25.60;33.00;;;;;;4913708;29;20282;-82
2020/12/07 09:33:23;;;;;;;;;;;25.60;31.90;;;;;;4913587;29;19927;-81
2020/12/07 09:35:52;;;;;;;;;;;25.60;31.10;;;;;;4915176;29;20366;-80
2020/12/07 09:38:19;;;;;;;;;;;25.60;30.70;;;;;;4914592;29;19958;-79
2020/12/07 09:40:46;;;;;;;;;;;25.50;30.90;;;;;;4914081;29;19911;-78
2020/12/07 09:43:13;;;;;;;;;;;25.50;31.20;;;;;;4915032;29;20311;-76
2020/12/07 09:45:39;;;;;;;;;;;25.40;31.80;;;;;;4897437;29;20037;-77
2020/12/07 09:48:06;;;;;;;;;;;25.40;31.80;;;;;;4914152;29;19911;-77
2020/12/07 09:50:33;;;;;;;;;;;25.40;31.30;;;;;;4896584;29;19914;-78
2020/12/07 09:53:00;;;;;;;;;;;25.30;31.40;;;;;;4914100;29;19959;-77
2020/12/07 09:55:26;;;;;;;;;;;25.30;31.30;;;;;;4913146;29;20101;-80
2020/12/07 09:57:53;;;;;;;;;;;25.30;32.30;;;;;;4914809;29;19915;-79
2020/12/07 10:00:20;;;;;;;;;;;25.30;32.30;;;;;;4914330;29;19950;-76
2020/12/07 10:02:47;;;;;;;;;;;25.20;32.10;;;;;;4914585;29;20009;-80
2020/12/07 10:05:14;;;;;;;;;;;25.10;32.30;;;;;;4914839;29;19918;-79
2020/12/07 10:07:40;;;;;;;;;;;25.10;33.60;;;;;;4910991;29;19915;-75
2020/12/07 10:10:07;;;;;;;;;;;25.00;33.00;;;;;;4913138;29;19959;-74
2020/12/07 10:12:34;;;;;;;;;;;25.00;32.90;;;;;;4896341;29;19949;-77
2020/12/07 10:15:01;;;;;;;;;;;25.00;32.90;;;;;;4913887;29;19962;-78
2020/12/07 10:17:28;;;;;;;;;;;25.00;33.80;;;;;;4910661;29;20013;-79
2020/12/07 10:19:55;;;;;;;;;;;24.90;33.40;;;;;;4897054;29;19911;-76
2020/12/07 10:22:22;;;;;;;;;;;24.80;33.70;;;;;;4913924;29;19907;-79
2020/12/07 10:24:48;;;;;;;;;;;24.80;32.60;;;;;;4914676;29;19915;-76
2020/12/07 10:27:15;;;;;;;;;;;24.80;32.60;;;;;;4913597;29;19958;-75
2020/12/07 10:29:42;;;;;;;;;;;24.80;33.20;;;;;;4913077;29;19974;-76
2020/12/07 10:32:08;;;;;;;;;;;24.80;33.50;;;;;;4913958;29;20001;-75
2020/12/07 10:34:38;;;;;;;;;;;24.70;33.30;;;;;;4913729;29;19974;-75
2020/12/07 10:37:07;;;;;;;;;;;24.70;33.80;;;;;;4921720;29;19966;-75
2020/12/07 10:39:33;;;;;;;;;;;24.70;36.30;;;;;;4914727;29;19958;-76
2020/12/07 10:42:01;;;;;;;;;;;24.60;34.00;;;;;;4914205;29;19918;-76
2020/12/07 10:44:28;;;;;;;;;;;24.60;34.80;;;;;;4915388;29;19911;-76
2020/12/07 10:46:54;;;;;;;;;;;24.50;35.00;;;;;;4916645;29;19911;-75
2020/12/07 10:49:21;;;;;;;;;;;24.50;36.40;;;;;;4916300;29;19907;-77
2020/12/07 10:51:51;;;;;;;;;;;24.40;35.00;;;;;;4915964;29;20346;-76
2020/12/07 10:54:17;;;;;;;;;;;24.40;33.80;;;;;;4914019;29;19967;-77
2020/12/07 10:56:44;;;;;;;;;;;24.40;34.40;;;;;;4913872;29;19919;-77
2020/12/07 10:59:12;;;;;;;;;;;24.40;34.20;;;;;;4913409;29;20005;-78
2020/12/07 11:01:38;;;;;;;;;;;24.40;34.50;;;;;;4914491;29;19967;-74
2020/12/07 11:04:05;;;;;;;;;;;24.40;34.50;;;;;;4914268;29;20367;-78
2020/12/07 11:06:34;;;;;;;;;;;24.40;35.40;;;;;;4912772;29;19908;-76
2020/12/07 11:09:06;;;;;;;;;;;24.30;34.00;;;;;;4913414;29;19907;-78
2020/12/07 11:11:36;;;;;;;;;;;24.30;34.60;;;;;;4913963;29;19986;-75
2020/12/07 11:14:03;;;;;;;;;;;24.20;36.50;;;;;;4914280;29;19918;-75
2020/12/07 11:16:32;;;;;;;;;;;24.20;34.20;;;;;;4913349;29;20259;-75
2020/12/07 11:18:59;;;;;;;;;;;24.10;34.10;;;;;;4914090;29;19961;-77
2020/12/07 11:21:25;;;;;;;;;;;24.10;35.00;;;;;;4913876;29;19910;-78
2020/12/07 11:23:53;;;;;;;;;;;24.00;36.70;;;;;;4913927;29;19906;-76
2020/12/07 11:26:20;;;;;;;;;;;24.00;36.60;;;;;;4913702;29;19911;-75
2020/12/07 11:28:47;;;;;;;;;;;24.00;34.80;;;;;;4914003;29;19994;-76
2020/12/07 11:31:14;;;;;;;;;;;24.00;36.20;;;;;;4919513;29;20370;-79
2020/12/07 11:33:41;;;;;;;;;;;24.00;35.70;;;;;;4926405;29;19954;-77
2020/12/07 11:36:08;;;;;;;;;;;23.90;34.80;;;;;;4932560;29;20358;-75
2020/12/07 11:38:40;;;;;;;;;;;23.90;37.00;;;;;;4933105;29;20333;-77
2020/12/07 11:41:20;;;;;;;;;;;23.90;35.10;;;;;;4918191;29;20323;-78
2020/12/07 11:46:54;;;;;;;;;;;23.80;36.00;;;;;;4912791;29;19959;-77
2020/12/07 11:49:20;;;;;;;;;;;23.70;35.70;;;;;;4930856;29;19914;-78
2020/12/07 11:51:47;;;;;;;;;;;23.70;35.80;;;;;;4920171;29;20402;-75
2020/12/07 11:54:14;;;;;;;;;;;23.60;35.90;;;;;;4917071;29;19919;-76
2020/12/07 11:56:41;;;;;;;;;;;23.60;37.50;;;;;;4917231;29;19944;-77
2020/12/07 11:59:14;;;;;;;;;;;23.60;37.00;;;;;;4923262;29;19911;-77
2020/12/07 12:01:41;;;;;;;;;;;23.60;36.80;;;;;;4917169;29;19966;-77
2020/12/07 12:04:08;;;;;;;;;;;23.60;36.90;;;;;;4916929;29;19907;-75
2020/12/07 12:06:35;;;;;;;;;;;23.50;36.30;;;;;;4916696;29;20306;-77
2020/12/07 12:09:04;;;;;;;;;;;23.50;36.70;;;;;;4916995;29;20322;-77
2020/12/07 12:11:31;;;;;;;;;;;23.50;36.50;;;;;;4917029;29;19970;-77
2020/12/07 12:13:59;;;;;;;;;;;23.50;36.60;;;;;;4916949;29;20286;-76
2020/12/07 12:16:27;;;;;;;;;;;23.40;36.50;;;;;;4906546;29;19919;-77
2020/12/07 12:18:54;;;;;;;;;;;23.50;38.20;;;;;;4916390;29;19926;-77
2020/12/07 12:21:23;;;;;;;;;;;23.40;37.60;;;;;;4916892;29;20052;-77
2020/12/07 12:23:50;;;;;;;;;;;23.40;38.10;;;;;;4899834;29;19935;-78
2020/12/07 12:26:20;;;;;;;;;;;23.40;38.20;;;;;;4900806;29;20040;-77
2020/12/07 12:28:47;;;;;;;;;;;23.30;38.10;;;;;;4902772;29;19963;-75
2020/12/07 12:31:14;;;;;;;;;;;23.30;36.60;;;;;;4900863;29;20259;-77
2020/12/07 12:33:43;;;;;;;;;;;23.30;36.50;;;;;;4901289;29;20028;-76
2020/12/07 12:36:14;;;;;;;;;;;23.20;37.70;;;;;;4914755;29;19919;-76
2020/12/07 12:38:41;;;;;;;;;;;23.20;37.80;;;;;;4917045;29;19938;-76
2020/12/07 12:41:08;;;;;;;;;;;23.10;38.20;;;;;;4921143;29;19911;-77
2020/12/07 12:43:35;;;;;;;;;;;23.10;37.80;;;;;;4933456;29;19921;-78
2020/12/07 12:46:04;;;;;;;;;;;23.10;36.70;;;;;;4917549;29;20001;-79
2020/12/07 12:48:32;;;;;;;;;;;23.10;37.10;;;;;;4923999;29;19953;-75
2020/12/07 12:50:58;;;;;;;;;;;23.10;37.90;;;;;;4943449;29;19941;-75
2020/12/07 12:53:25;;;;;;;;;;;23.00;36.90;;;;;;4936212;29;19967;-76
2020/12/07 12:55:52;;;;;;;;;;;23.00;37.90;;;;;;4933184;29;20289;-76
2020/12/07 12:58:18;;;;;;;;;;;23.00;37.00;;;;;;4935038;29;20646;-75
2020/12/07 13:00:48;;;;;;;;;;;23.00;37.10;;;;;;4935156;29;20429;-78
2020/12/07 13:03:17;;;;;;;;;;;22.90;37.60;;;;;;4917693;29;19911;-75
2020/12/07 13:05:44;;;;;;;;;;;23.00;36.90;;;;;;4919005;29;20337;-77
2020/12/07 13:08:14;;;;;;;;;;;23.00;38.00;;;;;;4896906;29;19908;-76
2020/12/07 13:10:41;;;;;;;;;;;23.00;37.00;;;;;;4907784;29;19965;-77
2020/12/07 13:13:07;;;;;;;;;;;22.90;37.10;;;;;;4934277;29;19910;-76
2020/12/07 13:15:43;;;;;;;;;;;22.90;37.50;;;;;;4914672;29;19923;-74
2020/12/07 13:18:11;;;;;;;;;;;22.70;37.60;;;;;;4896777;29;19912;-77
2020/12/07 13:20:46;;;;;;;;;;;22.40;38.30;;;;;;4913892;29;19919;-77
2020/12/07 13:23:26;;;;;;;;;;;22.10;40.10;;;;;;4915331;29;19954;-75
2020/12/07 13:26:07;;;;;;;;;;;21.60;42.00;;;;;;4925043;29;19947;-75
2020/12/07 13:28:34;;;;;;;;;;;21.10;43.20;;;;;;4934667;29;19918;-75
2020/12/07 13:31:00;;;;;;;;;;;20.90;44.30;;;;;;4918723;29;19911;-76
2020/12/07 13:33:27;;;;;;;;;;;20.70;44.80;;;;;;4934263;29;19934;-74
2020/12/07 13:35:54;;;;;;;;;;;20.50;45.80;;;;;;4923184;29;19981;-74
2020/12/07 13:38:20;;;;;;;;;;;20.40;46.60;;;;;;4915203;29;20342;-75
2020/12/07 13:40:50;;;;;;;;;;;20.30;46.80;;;;;;4929891;29;19954;-76
2020/12/07 13:43:17;;;;;;;;;;;20.20;46.90;;;;;;4915562;29;19915;-76
2020/12/07 13:45:45;;;;;;;;;;;20.10;47.00;;;;;;4919671;29;21880;-77
2020/12/07 13:48:12;;;;;;;;;;;20.20;48.20;;;;;;4915151;29;20374;-74
2020/12/07 13:50:39;;;;;;;;;;;20.10;47.40;;;;;;4915277;29;19919;-77
2020/12/07 13:53:07;;;;;;;;;;;20.00;48.00;;;;;;4915087;29;19946;-77
2020/12/07 13:55:35;;;;;;;;;;;19.90;47.90;;;;;;4916135;29;19923;-74
2020/12/07 13:58:01;;;;;;;;;;;19.80;48.10;;;;;;4915386;29;19911;-75
2020/12/07 14:00:28;;;;;;;;;;;19.80;48.50;;;;;;4917982;29;19926;-76
2020/12/07 14:02:55;;;;;;;;;;;19.80;49.30;;;;;;4934767;29;20365;-78
2020/12/07 14:05:21;;;;;;;;;;;19.80;48.50;;;;;;4935765;29;19906;-77
2020/12/07 14:07:50;;;;;;;;;;;19.80;49.00;;;;;;4936322;29;19907;-76
2020/12/07 14:10:16;;;;;;;;;;;19.70;48.60;;;;;;4933566;29;19997;-76
2020/12/07 14:12:46;;;;;;;;;;;19.70;48.80;;;;;;4916817;29;19933;-76
2020/12/07 14:15:13;;;;;;;;;;;19.70;48.90;;;;;;4915596;29;20382;-76
2020/12/07 14:17:56;;;;;;;;;;;19.60;48.70;;;;;;4916760;29;20046;-75
2020/12/07 14:20:54;;;;;;;;;;;19.60;48.60;;;;;;4916101;29;19954;-75
2020/12/07 14:23:25;;;;;;;;;;;19.60;48.70;;;;;;4915593;29;19958;-75
2020/12/07 14:29:00;;;;;;;;;;;19.50;48.60;;;;;;4916294;29;19911;-76
2020/12/07 14:31:45;;;;;;;;;;;19.50;48.70;;;;;;4934374;29;19911;-76
2020/12/07 14:42:09;;;;;;;;;;;19.30;49.40;;;;;;4925984;29;20113;-75
2020/12/07 14:44:43;;;;;;;;;;;19.30;49.60;;;;;;4916213;29;19915;-78
2020/12/07 14:47:11;;;;;;;;;;;19.30;50.00;;;;;;4933907;29;20392;-76
2020/12/07 14:49:38;;;;;;;;;;;19.30;48.70;;;;;;4916632;29;19917;-76
2020/12/07 14:52:08;;;;;;;;;;;19.30;49.20;;;;;;4916567;29;19930;-75
2020/12/07 14:54:42;;;;;;;;;;;19.20;49.80;;;;;;4923347;29;19923;-76
2020/12/07 14:57:34;;;;;;;;;;;19.10;50.10;;;;;;4918805;29;20281;-76
2020/12/07 15:05:44;;;;;;;;;;;19.10;52.00;;;;;;4884664;29;19907;-77
2020/12/07 15:16:16;;;;;;;;;;;19.10;51.20;;;;;;4919161;29;19915;-76
2020/12/07 15:18:43;;;;;;;;;;;19.00;51.40;;;;;;4919387;29;19911;-75